KORH

Worcester Regional Airport

Worcester, Massachusetts, USA
METAR KORH 242054Z 10009KT 10SM OVC024 11/06 A3057 RMK AO2 SLP357 T01060056 55002
Observed Flight Rules
Sep-24 @ 20:54 UTC (41 minutes ago) Marginal Visual Flight Rules
Wind Visibility Clouds
100° at 9 knots 10 miles
  • Overcast at 2,400' AGL
Temperatures Readings
Current 11°C / 52°F
Dewpoint 6°C / 43°F
Humidity 72%
Altimeter 30.57" Hg
Pressure 1035.7 hPa
Elevation 304
METAR KORH 242054Z 10009KT 10SM OVC024 11/06 A3057 RMK AO2 SLP357 T01060056 55002
Observed Flight Rules
Sep-24 @ 20:54 UTC
(41 minutes ago)
MVFR
Wind Visibility
100° at 9 knots 10 miles
Clouds
  • Overcast at 2,400' AGL
Temperature Dewpoint
11°C / 52°F 6°C / 43°F
Humidity Altimeter Pressure
72% 30.57" Hg 1035.7 hPa